CYVM/YVM METAR and TAF weather

Enter ICAO airport designator
Station Type Date Time Source
CYVM METAR 2018/01/22 12:00 UTC NOAA

CYVM 221200Z 20006KT 12SM FEW020 BKN100 M24/M27 A2990 RMK SC1AS5 SLP127


Station Type Date Time Source
CYVM Decoded METAR 2018/01/22 12:00 UTC NOAA

Broughton Island Airport, Canada (CYVM) 67-33N 064-02W
Jan 22, 2018 - 07:00 AM EST / 2018.01.22 1200 UTC
Wind: from the SSW (200 degrees) at 7 MPH (6 KT):0
Visibility: 12 mile(s):0
Sky conditions: mostly cloudy
Temperature: -11 F (-24 C)
Windchill: -25 F (-32 C):2
Dew Point: -16 F (-27 C)
Relative Humidity: 76%
Pressure (altimeter): 29.9 in. Hg (1012 hPa)
ob: CYVM 221200Z 20006KT 12SM FEW020 BKN100 M24/M27 A2990 RMK SC1AS5 SLP127
cycle: 12

Station Type Date Time Source
CYVM TAF 2018/01/22 07:42 UTC NOAA

TAF CYVM 220639Z 2207/2219 VRB03KT P6SM IC BKN080
TEMPO 2207/2219 4SM IC BR HZ
RMK FCST BASED ON AUTO OBS. NXT FCST BY 221300Z


Example: see airport list